sensor_id;sensor_type;location;lat;lon;timestamp;P1;durP1;ratioP1;P2;durP2;ratioP2
68951;SDS011;56000;51.146;17.112;2022-10-03T00:03:21;8.20;;;3.20;;
68951;SDS011;56000;51.146;17.112;2022-10-03T00:06:06;15.60;;;3.50;;
68951;SDS011;56000;51.146;17.112;2022-10-03T00:08:51;13.30;;;3.00;;
68951;SDS011;56000;51.146;17.112;2022-10-03T00:11:44;13.90;;;3.40;;
68951;SDS011;56000;51.146;17.112;2022-10-03T00:14:29;13.40;;;3.20;;
68951;SDS011;56000;51.146;17.112;2022-10-03T00:17:11;13.60;;;3.30;;
68951;SDS011;56000;51.146;17.112;2022-10-03T00:19:48;14.50;;;3.70;;
68951;SDS011;56000;51.146;17.112;2022-10-03T00:22:30;13.10;;;3.60;;
68951;SDS011;56000;51.146;17.112;2022-10-03T00:25:19;11.00;;;2.90;;
68951;SDS011;56000;51.146;17.112;2022-10-03T00:28:09;10.10;;;3.20;;
68951;SDS011;56000;51.146;17.112;2022-10-03T00:30:57;11.30;;;3.00;;
68951;SDS011;56000;51.146;17.112;2022-10-03T00:33:42;9.40;;;3.00;;
68951;SDS011;56000;51.146;17.112;2022-10-03T00:36:26;22.70;;;3.00;;
68951;SDS011;56000;51.146;17.112;2022-10-03T00:39:16;13.90;;;3.30;;
68951;SDS011;56000;51.146;17.112;2022-10-03T00:45:54;8.30;;;2.20;;
68951;SDS011;56000;51.146;17.112;2022-10-03T00:49:11;13.90;;;3.00;;
68951;SDS011;56000;51.146;17.112;2022-10-03T00:52:10;14.20;;;3.30;;
68951;SDS011;56000;51.146;17.112;2022-10-03T00:54:58;11.00;;;2.50;;
68951;SDS011;56000;51.146;17.112;2022-10-03T00:57:53;7.00;;;2.60;;
68951;SDS011;56000;51.146;17.112;2022-10-03T01:00:32;10.60;;;3.30;;
68951;SDS011;56000;51.146;17.112;2022-10-03T01:03:19;19.00;;;2.80;;
68951;SDS011;56000;51.146;17.112;2022-10-03T01:06:15;13.20;;;3.40;;
68951;SDS011;56000;51.146;17.112;2022-10-03T01:09:11;17.50;;;3.20;;
68951;SDS011;56000;51.146;17.112;2022-10-03T01:12:10;9.60;;;2.80;;
68951;SDS011;56000;51.146;17.112;2022-10-03T01:15:02;10.90;;;2.90;;
68951;SDS011;56000;51.146;17.112;2022-10-03T01:17:48;12.00;;;3.00;;
68951;SDS011;56000;51.146;17.112;2022-10-03T01:20:33;13.40;;;2.70;;
68951;SDS011;56000;51.146;17.112;2022-10-03T01:23:27;15.40;;;3.40;;
68951;SDS011;56000;51.146;17.112;2022-10-03T01:40:16;12.80;;;3.60;;
68951;SDS011;56000;51.146;17.112;2022-10-03T01:43:05;17.10;;;3.00;;
68951;SDS011;56000;51.146;17.112;2022-10-03T01:45:51;10.60;;;2.50;;
68951;SDS011;56000;51.146;17.112;2022-10-03T01:48:38;14.10;;;2.90;;
68951;SDS011;56000;51.146;17.112;2022-10-03T01:51:18;16.90;;;2.70;;
68951;SDS011;56000;51.146;17.112;2022-10-03T01:54:10;13.20;;;2.50;;
68951;SDS011;56000;51.146;17.112;2022-10-03T01:56:54;14.80;;;3.00;;
68951;SDS011;56000;51.146;17.112;2022-10-03T01:59:34;16.80;;;3.90;;
68951;SDS011;56000;51.146;17.112;2022-10-03T02:02:22;21.00;;;3.20;;
68951;SDS011;56000;51.146;17.112;2022-10-03T02:05:05;17.20;;;3.30;;
68951;SDS011;56000;51.146;17.112;2022-10-03T02:07:44;13.70;;;3.00;;
68951;SDS011;56000;51.146;17.112;2022-10-03T02:10:31;16.80;;;3.10;;
68951;SDS011;56000;51.146;17.112;2022-10-03T02:13:15;13.90;;;2.70;;
68951;SDS011;56000;51.146;17.112;2022-10-03T02:16:00;15.40;;;2.70;;
68951;SDS011;56000;51.146;17.112;2022-10-03T02:18:41;9.90;;;2.60;;
68951;SDS011;56000;51.146;17.112;2022-10-03T02:21:20;24.70;;;3.40;;
68951;SDS011;56000;51.146;17.112;2022-10-03T02:24:10;18.10;;;3.00;;
68951;SDS011;56000;51.146;17.112;2022-10-03T02:30:14;13.60;;;3.20;;
68951;SDS011;56000;51.146;17.112;2022-10-03T02:33:21;10.50;;;2.90;;
68951;SDS011;56000;51.146;17.112;2022-10-03T02:36:28;6.70;;;2.40;;
68951;SDS011;56000;51.146;17.112;2022-10-03T02:42:45;16.40;;;3.10;;
68951;SDS011;56000;51.146;17.112;2022-10-03T02:53:05;16.00;;;3.40;;
68951;SDS011;56000;51.146;17.112;2022-10-03T02:56:29;13.80;;;2.80;;
68951;SDS011;56000;51.146;17.112;2022-10-03T02:59:41;19.30;;;3.90;;
68951;SDS011;56000;51.146;17.112;2022-10-03T03:02:48;13.10;;;3.00;;
68951;SDS011;56000;51.146;17.112;2022-10-03T03:19:17;10.80;;;3.60;;
68951;SDS011;56000;51.146;17.112;2022-10-03T03:22:07;11.50;;;3.00;;
68951;SDS011;56000;51.146;17.112;2022-10-03T03:25:02;19.40;;;3.50;;
68951;SDS011;56000;51.146;17.112;2022-10-03T03:27:58;17.40;;;3.60;;
68951;SDS011;56000;51.146;17.112;2022-10-03T03:30:46;21.80;;;4.30;;
68951;SDS011;56000;51.146;17.112;2022-10-03T03:33:32;14.50;;;3.30;;
68951;SDS011;56000;51.146;17.112;2022-10-03T03:36:17;16.70;;;3.40;;
68951;SDS011;56000;51.146;17.112;2022-10-03T03:39:11;11.40;;;3.30;;
68951;SDS011;56000;51.146;17.112;2022-10-03T03:42:07;19.80;;;3.50;;
68951;SDS011;56000;51.146;17.112;2022-10-03T03:45:03;15.20;;;4.10;;
68951;SDS011;56000;51.146;17.112;2022-10-03T03:48:05;16.40;;;3.40;;
68951;SDS011;56000;51.146;17.112;2022-10-03T03:51:02;9.20;;;2.60;;
68951;SDS011;56000;51.146;17.112;2022-10-03T03:57:26;16.80;;;3.50;;
68951;SDS011;56000;51.146;17.112;2022-10-03T04:00:13;20.50;;;4.00;;
68951;SDS011;56000;51.146;17.112;2022-10-03T04:05:37;10.60;;;3.30;;
68951;SDS011;56000;51.146;17.112;2022-10-03T04:08:36;9.90;;;2.70;;
68951;SDS011;56000;51.146;17.112;2022-10-03T04:11:26;25.20;;;5.20;;
68951;SDS011;56000;51.146;17.112;2022-10-03T04:17:37;21.20;;;3.40;;
68951;SDS011;56000;51.146;17.112;2022-10-03T04:20:58;16.50;;;3.30;;
68951;SDS011;56000;51.146;17.112;2022-10-03T04:23:59;23.90;;;3.60;;
68951;SDS011;56000;51.146;17.112;2022-10-03T04:26:49;12.30;;;3.10;;
68951;SDS011;56000;51.146;17.112;2022-10-03T04:29:48;13.80;;;3.30;;
68951;SDS011;56000;51.146;17.112;2022-10-03T04:35:36;13.20;;;2.90;;
68951;SDS011;56000;51.146;17.112;2022-10-03T04:38:38;17.40;;;3.40;;
68951;SDS011;56000;51.146;17.112;2022-10-03T04:41:23;22.30;;;3.80;;
68951;SDS011;56000;51.146;17.112;2022-10-03T04:44:07;19.80;;;3.40;;
68951;SDS011;56000;51.146;17.112;2022-10-03T04:46:55;11.50;;;2.70;;
68951;SDS011;56000;51.146;17.112;2022-10-03T04:49:34;14.30;;;3.40;;
68951;SDS011;56000;51.146;17.112;2022-10-03T04:52:17;10.20;;;2.70;;
68951;SDS011;56000;51.146;17.112;2022-10-03T04:54:58;11.80;;;2.90;;
68951;SDS011;56000;51.146;17.112;2022-10-03T04:57:44;15.00;;;3.30;;
68951;SDS011;56000;51.146;17.112;2022-10-03T05:00:24;13.60;;;3.50;;
68951;SDS011;56000;51.146;17.112;2022-10-03T05:03:05;14.60;;;2.60;;
68951;SDS011;56000;51.146;17.112;2022-10-03T05:05:51;16.40;;;3.30;;
68951;SDS011;56000;51.146;17.112;2022-10-03T05:08:34;17.00;;;3.00;;
68951;SDS011;56000;51.146;17.112;2022-10-03T05:11:19;18.80;;;3.20;;
68951;SDS011;56000;51.146;17.112;2022-10-03T05:14:07;13.70;;;2.70;;
68951;SDS011;56000;51.146;17.112;2022-10-03T05:16:50;21.50;;;3.80;;
68951;SDS011;56000;51.146;17.112;2022-10-03T05:19:45;16.10;;;2.80;;
68951;SDS011;56000;51.146;17.112;2022-10-03T05:22:39;13.80;;;2.80;;
68951;SDS011;56000;51.146;17.112;2022-10-03T05:25:26;11.00;;;2.70;;
68951;SDS011;56000;51.146;17.112;2022-10-03T05:28:13;9.00;;;2.50;;
68951;SDS011;56000;51.146;17.112;2022-10-03T05:31:00;10.30;;;2.70;;
68951;SDS011;56000;51.146;17.112;2022-10-03T05:33:44;22.90;;;3.20;;
68951;SDS011;56000;51.146;17.112;2022-10-03T05:36:29;22.70;;;3.50;;
68951;SDS011;56000;51.146;17.112;2022-10-03T05:39:29;18.80;;;3.40;;
68951;SDS011;56000;51.146;17.112;2022-10-03T05:42:34;17.90;;;2.80;;
68951;SDS011;56000;51.146;17.112;2022-10-03T05:45:27;20.00;;;3.30;;
68951;SDS011;56000;51.146;17.112;2022-10-03T05:48:12;19.10;;;3.50;;
68951;SDS011;56000;51.146;17.112;2022-10-03T05:54:32;13.70;;;2.90;;
68951;SDS011;56000;51.146;17.112;2022-10-03T06:00:42;18.60;;;3.90;;
68951;SDS011;56000;51.146;17.112;2022-10-03T06:03:48;11.40;;;3.30;;
68951;SDS011;56000;51.146;17.112;2022-10-03T06:06:47;13.10;;;2.80;;
68951;SDS011;56000;51.146;17.112;2022-10-03T06:09:42;10.90;;;2.70;;
68951;SDS011;56000;51.146;17.112;2022-10-03T06:12:54;12.30;;;3.00;;
68951;SDS011;56000;51.146;17.112;2022-10-03T06:15:53;21.90;;;2.70;;
68951;SDS011;56000;51.146;17.112;2022-10-03T06:19:07;11.20;;;2.80;;
68951;SDS011;56000;51.146;17.112;2022-10-03T06:29:19;14.80;;;2.90;;
68951;SDS011;56000;51.146;17.112;2022-10-03T06:32:23;11.50;;;2.60;;
68951;SDS011;56000;51.146;17.112;2022-10-03T06:35:58;21.50;;;3.50;;
68951;SDS011;56000;51.146;17.112;2022-10-03T06:42:56;11.00;;;2.70;;
68951;SDS011;56000;51.146;17.112;2022-10-03T06:46:10;11.70;;;2.70;;
68951;SDS011;56000;51.146;17.112;2022-10-03T06:49:27;8.40;;;2.60;;
68951;SDS011;56000;51.146;17.112;2022-10-03T06:52:38;9.20;;;2.60;;
68951;SDS011;56000;51.146;17.112;2022-10-03T06:55:30;11.80;;;2.50;;
68951;SDS011;56000;51.146;17.112;2022-10-03T06:58:41;11.50;;;3.90;;
68951;SDS011;56000;51.146;17.112;2022-10-03T07:01:53;8.40;;;3.20;;
68951;SDS011;56000;51.146;17.112;2022-10-03T07:05:15;13.90;;;2.90;;
68951;SDS011;56000;51.146;17.112;2022-10-03T07:18:39;6.30;;;2.30;;
68951;SDS011;56000;51.146;17.112;2022-10-03T07:21:52;6.70;;;2.40;;
68951;SDS011;56000;51.146;17.112;2022-10-03T07:28:11;7.10;;;2.30;;
68951;SDS011;56000;51.146;17.112;2022-10-03T07:31:07;9.50;;;2.50;;
68951;SDS011;56000;51.146;17.112;2022-10-03T07:37:34;10.10;;;2.30;;
68951;SDS011;56000;51.146;17.112;2022-10-03T07:45:02;8.70;;;2.40;;
68951;SDS011;56000;51.146;17.112;2022-10-03T07:51:22;11.70;;;2.30;;
68951;SDS011;56000;51.146;17.112;2022-10-03T07:54:22;11.50;;;2.50;;
68951;SDS011;56000;51.146;17.112;2022-10-03T07:57:25;7.70;;;2.40;;
68951;SDS011;56000;51.146;17.112;2022-10-03T08:00:21;8.90;;;2.00;;
68951;SDS011;56000;51.146;17.112;2022-10-03T08:03:35;7.70;;;2.00;;
68951;SDS011;56000;51.146;17.112;2022-10-03T08:06:39;7.00;;;2.10;;
68951;SDS011;56000;51.146;17.112;2022-10-03T08:09:26;7.00;;;2.00;;
68951;SDS011;56000;51.146;17.112;2022-10-03T08:12:31;4.70;;;1.90;;
68951;SDS011;56000;51.146;17.112;2022-10-03T08:15:22;10.10;;;1.90;;
68951;SDS011;56000;51.146;17.112;2022-10-03T08:18:30;3.90;;;1.60;;
68951;SDS011;56000;51.146;17.112;2022-10-03T08:21:21;7.40;;;1.80;;
68951;SDS011;56000;51.146;17.112;2022-10-03T08:24:19;6.10;;;1.90;;
68951;SDS011;56000;51.146;17.112;2022-10-03T08:27:18;5.60;;;1.80;;
68951;SDS011;56000;51.146;17.112;2022-10-03T08:30:19;5.80;;;1.80;;
68951;SDS011;56000;51.146;17.112;2022-10-03T08:39:34;4.00;;;1.40;;
68951;SDS011;56000;51.146;17.112;2022-10-03T08:42:38;5.80;;;1.60;;
68951;SDS011;56000;51.146;17.112;2022-10-03T08:49:01;8.50;;;1.70;;
68951;SDS011;56000;51.146;17.112;2022-10-03T08:52:04;13.90;;;2.20;;
68951;SDS011;56000;51.146;17.112;2022-10-03T08:58:20;9.40;;;1.70;;
68951;SDS011;56000;51.146;17.112;2022-10-03T09:01:31;10.00;;;1.80;;
68951;SDS011;56000;51.146;17.112;2022-10-03T09:07:47;5.50;;;1.80;;
68951;SDS011;56000;51.146;17.112;2022-10-03T09:11:00;4.10;;;1.40;;
68951;SDS011;56000;51.146;17.112;2022-10-03T09:23:49;5.70;;;1.60;;
68951;SDS011;56000;51.146;17.112;2022-10-03T09:30:35;7.50;;;1.70;;
68951;SDS011;56000;51.146;17.112;2022-10-03T09:33:51;9.00;;;1.80;;
68951;SDS011;56000;51.146;17.112;2022-10-03T09:40:24;6.90;;;1.80;;
68951;SDS011;56000;51.146;17.112;2022-10-03T09:43:48;2.80;;;1.50;;
68951;SDS011;56000;51.146;17.112;2022-10-03T09:46:58;4.50;;;1.50;;
68951;SDS011;56000;51.146;17.112;2022-10-03T09:53:44;4.30;;;1.60;;
68951;SDS011;56000;51.146;17.112;2022-10-03T10:00:20;7.50;;;1.80;;
68951;SDS011;56000;51.146;17.112;2022-10-03T10:06:37;6.30;;;1.90;;
68951;SDS011;56000;51.146;17.112;2022-10-03T10:09:47;8.50;;;1.70;;
68951;SDS011;56000;51.146;17.112;2022-10-03T10:15:58;6.10;;;1.50;;
68951;SDS011;56000;51.146;17.112;2022-10-03T10:19:12;5.20;;;1.90;;
68951;SDS011;56000;51.146;17.112;2022-10-03T10:22:15;7.30;;;1.80;;
68951;SDS011;56000;51.146;17.112;2022-10-03T10:25:24;8.50;;;1.80;;
68951;SDS011;56000;51.146;17.112;2022-10-03T10:28:48;7.30;;;1.90;;
68951;SDS011;56000;51.146;17.112;2022-10-03T10:31:58;7.20;;;2.10;;
68951;SDS011;56000;51.146;17.112;2022-10-03T10:35:25;5.80;;;2.30;;
68951;SDS011;56000;51.146;17.112;2022-10-03T10:38:27;8.00;;;1.80;;
68951;SDS011;56000;51.146;17.112;2022-10-03T11:06:44;6.70;;;1.60;;
68951;SDS011;56000;51.146;17.112;2022-10-03T11:10:33;3.70;;;1.50;;
68951;SDS011;56000;51.146;17.112;2022-10-03T11:16:59;5.00;;;1.60;;
68951;SDS011;56000;51.146;17.112;2022-10-03T11:27:33;3.30;;;1.40;;
68951;SDS011;56000;51.146;17.112;2022-10-03T11:37:41;4.80;;;1.60;;
68951;SDS011;56000;51.146;17.112;2022-10-03T11:40:33;3.90;;;1.40;;
68951;SDS011;56000;51.146;17.112;2022-10-03T11:43:40;4.60;;;1.40;;
68951;SDS011;56000;51.146;17.112;2022-10-03T11:46:45;4.20;;;1.40;;
68951;SDS011;56000;51.146;17.112;2022-10-03T11:49:38;5.10;;;1.50;;
68951;SDS011;56000;51.146;17.112;2022-10-03T11:52:32;5.20;;;1.60;;
68951;SDS011;56000;51.146;17.112;2022-10-03T11:55:23;2.70;;;1.30;;
68951;SDS011;56000;51.146;17.112;2022-10-03T11:58:13;4.20;;;1.40;;
68951;SDS011;56000;51.146;17.112;2022-10-03T12:01:16;3.80;;;1.70;;
68951;SDS011;56000;51.146;17.112;2022-10-03T12:04:01;3.90;;;1.40;;
68951;SDS011;56000;51.146;17.112;2022-10-03T12:06:49;4.10;;;1.10;;
68951;SDS011;56000;51.146;17.112;2022-10-03T12:09:59;3.80;;;1.30;;
68951;SDS011;56000;51.146;17.112;2022-10-03T12:12:39;4.40;;;1.30;;
68951;SDS011;56000;51.146;17.112;2022-10-03T12:15:25;6.00;;;1.80;;
68951;SDS011;56000;51.146;17.112;2022-10-03T12:18:08;4.00;;;1.70;;
68951;SDS011;56000;51.146;17.112;2022-10-03T12:21:09;7.20;;;2.20;;
68951;SDS011;56000;51.146;17.112;2022-10-03T12:24:04;4.10;;;1.70;;
68951;SDS011;56000;51.146;17.112;2022-10-03T12:27:02;6.40;;;1.90;;
68951;SDS011;56000;51.146;17.112;2022-10-03T12:29:45;4.50;;;1.70;;
68951;SDS011;56000;51.146;17.112;2022-10-03T12:32:31;7.00;;;1.90;;
68951;SDS011;56000;51.146;17.112;2022-10-03T12:35:23;4.10;;;1.50;;
68951;SDS011;56000;51.146;17.112;2022-10-03T12:38:15;5.20;;;1.60;;
68951;SDS011;56000;51.146;17.112;2022-10-03T12:41:02;3.00;;;1.50;;
68951;SDS011;56000;51.146;17.112;2022-10-03T12:43:48;5.00;;;1.90;;
68951;SDS011;56000;51.146;17.112;2022-10-03T12:46:36;4.00;;;1.50;;
68951;SDS011;56000;51.146;17.112;2022-10-03T12:49:18;4.70;;;1.70;;
68951;SDS011;56000;51.146;17.112;2022-10-03T12:52:05;4.50;;;1.70;;
68951;SDS011;56000;51.146;17.112;2022-10-03T12:54:49;5.00;;;2.00;;
68951;SDS011;56000;51.146;17.112;2022-10-03T12:57:54;4.20;;;1.60;;
68951;SDS011;56000;51.146;17.112;2022-10-03T13:00:35;8.80;;;2.20;;
68951;SDS011;56000;51.146;17.112;2022-10-03T13:03:21;6.30;;;1.80;;
68951;SDS011;56000;51.146;17.112;2022-10-03T13:06:35;7.90;;;1.90;;
68951;SDS011;56000;51.146;17.112;2022-10-03T13:09:46;7.80;;;1.70;;
68951;SDS011;56000;51.146;17.112;2022-10-03T13:12:45;5.30;;;1.70;;
68951;SDS011;56000;51.146;17.112;2022-10-03T13:15:50;9.40;;;2.20;;
68951;SDS011;56000;51.146;17.112;2022-10-03T13:21:47;7.80;;;1.70;;
68951;SDS011;56000;51.146;17.112;2022-10-03T13:24:35;7.80;;;1.90;;
68951;SDS011;56000;51.146;17.112;2022-10-03T13:27:24;6.40;;;1.70;;
68951;SDS011;56000;51.146;17.112;2022-10-03T13:30:11;7.60;;;1.90;;
68951;SDS011;56000;51.146;17.112;2022-10-03T13:32:50;10.40;;;2.20;;
68951;SDS011;56000;51.146;17.112;2022-10-03T13:35:35;6.80;;;1.80;;
68951;SDS011;56000;51.146;17.112;2022-10-03T13:41:54;4.10;;;1.70;;
68951;SDS011;56000;51.146;17.112;2022-10-03T13:44:36;5.20;;;1.50;;
68951;SDS011;56000;51.146;17.112;2022-10-03T13:47:23;8.70;;;2.00;;
68951;SDS011;56000;51.146;17.112;2022-10-03T13:50:17;8.40;;;1.80;;
68951;SDS011;56000;51.146;17.112;2022-10-03T13:52:58;6.50;;;2.00;;
68951;SDS011;56000;51.146;17.112;2022-10-03T13:55:41;7.70;;;2.00;;
68951;SDS011;56000;51.146;17.112;2022-10-03T13:58:32;9.50;;;2.20;;
68951;SDS011;56000;51.146;17.112;2022-10-03T14:01:31;11.50;;;1.80;;
68951;SDS011;56000;51.146;17.112;2022-10-03T14:07:28;8.70;;;2.00;;
68951;SDS011;56000;51.146;17.112;2022-10-03T14:10:21;10.30;;;2.00;;
68951;SDS011;56000;51.146;17.112;2022-10-03T14:13:21;7.10;;;2.00;;
68951;SDS011;56000;51.146;17.112;2022-10-03T14:16:04;5.90;;;2.20;;
68951;SDS011;56000;51.146;17.112;2022-10-03T14:18:52;6.50;;;2.10;;
68951;SDS011;56000;51.146;17.112;2022-10-03T14:21:43;7.90;;;2.40;;
68951;SDS011;56000;51.146;17.112;2022-10-03T14:24:39;8.00;;;2.20;;
68951;SDS011;56000;51.146;17.112;2022-10-03T14:27:34;10.80;;;2.70;;
68951;SDS011;56000;51.146;17.112;2022-10-03T14:30:13;10.00;;;2.40;;
68951;SDS011;56000;51.146;17.112;2022-10-03T14:33:00;10.10;;;2.40;;
68951;SDS011;56000;51.146;17.112;2022-10-03T14:35:52;7.00;;;1.90;;
68951;SDS011;56000;51.146;17.112;2022-10-03T14:38:37;14.00;;;2.00;;
68951;SDS011;56000;51.146;17.112;2022-10-03T14:41:43;7.40;;;2.00;;
68951;SDS011;56000;51.146;17.112;2022-10-03T14:44:20;6.60;;;1.90;;
68951;SDS011;56000;51.146;17.112;2022-10-03T14:46:59;7.30;;;1.90;;
68951;SDS011;56000;51.146;17.112;2022-10-03T14:49:39;8.60;;;2.70;;
68951;SDS011;56000;51.146;17.112;2022-10-03T14:52:31;6.80;;;2.20;;
68951;SDS011;56000;51.146;17.112;2022-10-03T14:55:13;6.30;;;2.00;;
68951;SDS011;56000;51.146;17.112;2022-10-03T14:58:00;5.90;;;2.10;;
68951;SDS011;56000;51.146;17.112;2022-10-03T15:00:42;5.80;;;2.10;;
68951;SDS011;56000;51.146;17.112;2022-10-03T15:03:28;7.60;;;2.10;;
68951;SDS011;56000;51.146;17.112;2022-10-03T15:06:21;4.30;;;1.60;;
68951;SDS011;56000;51.146;17.112;2022-10-03T15:09:07;11.60;;;2.00;;
68951;SDS011;56000;51.146;17.112;2022-10-03T15:11:46;5.70;;;1.60;;
68951;SDS011;56000;51.146;17.112;2022-10-03T15:14:22;7.50;;;1.70;;
68951;SDS011;56000;51.146;17.112;2022-10-03T15:17:00;7.50;;;2.00;;
68951;SDS011;56000;51.146;17.112;2022-10-03T15:19:38;7.40;;;1.80;;
68951;SDS011;56000;51.146;17.112;2022-10-03T15:22:26;9.10;;;2.20;;
68951;SDS011;56000;51.146;17.112;2022-10-03T15:25:06;8.30;;;2.20;;
68951;SDS011;56000;51.146;17.112;2022-10-03T15:27:44;11.80;;;2.20;;
68951;SDS011;56000;51.146;17.112;2022-10-03T15:30:22;12.80;;;2.40;;
68951;SDS011;56000;51.146;17.112;2022-10-03T15:33:09;7.50;;;2.10;;
68951;SDS011;56000;51.146;17.112;2022-10-03T15:35:46;10.40;;;2.40;;
68951;SDS011;56000;51.146;17.112;2022-10-03T15:38:24;7.10;;;2.00;;
68951;SDS011;56000;51.146;17.112;2022-10-03T15:41:10;12.80;;;2.00;;
68951;SDS011;56000;51.146;17.112;2022-10-03T15:43:53;9.10;;;2.00;;
68951;SDS011;56000;51.146;17.112;2022-10-03T15:46:35;16.50;;;2.40;;
68951;SDS011;56000;51.146;17.112;2022-10-03T15:49:16;7.20;;;2.10;;
68951;SDS011;56000;51.146;17.112;2022-10-03T15:51:55;9.30;;;2.00;;
68951;SDS011;56000;51.146;17.112;2022-10-03T15:54:36;9.50;;;2.00;;
68951;SDS011;56000;51.146;17.112;2022-10-03T15:57:18;6.90;;;2.00;;
68951;SDS011;56000;51.146;17.112;2022-10-03T15:59:56;13.90;;;2.90;;
68951;SDS011;56000;51.146;17.112;2022-10-03T16:02:38;6.60;;;2.00;;
68951;SDS011;56000;51.146;17.112;2022-10-03T16:05:22;8.20;;;2.70;;
68951;SDS011;56000;51.146;17.112;2022-10-03T16:07:59;11.20;;;2.50;;
68951;SDS011;56000;51.146;17.112;2022-10-03T16:10:37;10.20;;;3.00;;
68951;SDS011;56000;51.146;17.112;2022-10-03T16:13:26;9.30;;;2.00;;
68951;SDS011;56000;51.146;17.112;2022-10-03T16:16:11;10.20;;;2.60;;
68951;SDS011;56000;51.146;17.112;2022-10-03T16:18:53;12.00;;;1.80;;
68951;SDS011;56000;51.146;17.112;2022-10-03T16:21:41;11.20;;;2.90;;
68951;SDS011;56000;51.146;17.112;2022-10-03T16:24:22;11.50;;;2.40;;
68951;SDS011;56000;51.146;17.112;2022-10-03T16:27:05;10.60;;;2.40;;
68951;SDS011;56000;51.146;17.112;2022-10-03T16:29:50;10.00;;;2.50;;
68951;SDS011;56000;51.146;17.112;2022-10-03T16:32:29;8.90;;;2.60;;
68951;SDS011;56000;51.146;17.112;2022-10-03T16:35:13;11.60;;;2.50;;
68951;SDS011;56000;51.146;17.112;2022-10-03T16:37:57;20.10;;;2.90;;
68951;SDS011;56000;51.146;17.112;2022-10-03T16:40:34;10.30;;;2.70;;
68951;SDS011;56000;51.146;17.112;2022-10-03T16:43:13;11.10;;;2.70;;
68951;SDS011;56000;51.146;17.112;2022-10-03T16:45:48;11.70;;;2.70;;
68951;SDS011;56000;51.146;17.112;2022-10-03T16:48:23;9.90;;;2.50;;
68951;SDS011;56000;51.146;17.112;2022-10-03T16:51:21;14.60;;;3.20;;
68951;SDS011;56000;51.146;17.112;2022-10-03T16:56:30;9.80;;;2.90;;
68951;SDS011;56000;51.146;17.112;2022-10-03T16:59:12;18.30;;;3.40;;
68951;SDS011;56000;51.146;17.112;2022-10-03T17:01:50;12.40;;;2.90;;
68951;SDS011;56000;51.146;17.112;2022-10-03T17:04:27;10.40;;;3.40;;
68951;SDS011;56000;51.146;17.112;2022-10-03T17:07:05;8.60;;;2.40;;
68951;SDS011;56000;51.146;17.112;2022-10-03T17:09:44;9.30;;;2.30;;
68951;SDS011;56000;51.146;17.112;2022-10-03T17:12:21;9.00;;;2.90;;
68951;SDS011;56000;51.146;17.112;2022-10-03T17:15:00;10.20;;;2.80;;
68951;SDS011;56000;51.146;17.112;2022-10-03T17:17:39;14.70;;;3.40;;
68951;SDS011;56000;51.146;17.112;2022-10-03T17:20:23;16.30;;;3.40;;
68951;SDS011;56000;51.146;17.112;2022-10-03T17:23:09;13.20;;;3.50;;
68951;SDS011;56000;51.146;17.112;2022-10-03T17:25:55;14.40;;;3.30;;
68951;SDS011;56000;51.146;17.112;2022-10-03T17:28:40;11.50;;;2.80;;
68951;SDS011;56000;51.146;17.112;2022-10-03T17:31:28;14.00;;;3.30;;
68951;SDS011;56000;51.146;17.112;2022-10-03T17:34:09;15.50;;;3.40;;
68951;SDS011;56000;51.146;17.112;2022-10-03T17:37:07;11.20;;;3.00;;
68951;SDS011;56000;51.146;17.112;2022-10-03T17:39:55;14.00;;;2.90;;
68951;SDS011;56000;51.146;17.112;2022-10-03T17:42:40;14.40;;;3.70;;
68951;SDS011;56000;51.146;17.112;2022-10-03T17:45:34;11.80;;;2.90;;
68951;SDS011;56000;51.146;17.112;2022-10-03T17:48:15;9.50;;;3.00;;
68951;SDS011;56000;51.146;17.112;2022-10-03T17:51:01;15.00;;;3.50;;
68951;SDS011;56000;51.146;17.112;2022-10-03T17:53:51;22.50;;;3.10;;
68951;SDS011;56000;51.146;17.112;2022-10-03T17:56:29;17.00;;;3.90;;
68951;SDS011;56000;51.146;17.112;2022-10-03T17:59:06;13.10;;;2.70;;
68951;SDS011;56000;51.146;17.112;2022-10-03T18:04:29;11.60;;;2.70;;
68951;SDS011;56000;51.146;17.112;2022-10-03T18:07:10;9.70;;;3.20;;
68951;SDS011;56000;51.146;17.112;2022-10-03T18:09:49;15.50;;;3.20;;
68951;SDS011;56000;51.146;17.112;2022-10-03T18:12:29;13.20;;;3.00;;
68951;SDS011;56000;51.146;17.112;2022-10-03T18:15:18;9.60;;;2.90;;
68951;SDS011;56000;51.146;17.112;2022-10-03T18:18:17;21.30;;;4.00;;
68951;SDS011;56000;51.146;17.112;2022-10-03T18:21:09;9.00;;;2.50;;
68951;SDS011;56000;51.146;17.112;2022-10-03T18:23:59;14.70;;;3.40;;
68951;SDS011;56000;51.146;17.112;2022-10-03T18:26:45;10.10;;;3.30;;
68951;SDS011;56000;51.146;17.112;2022-10-03T18:29:28;10.80;;;3.40;;
68951;SDS011;56000;51.146;17.112;2022-10-03T18:32:12;14.90;;;4.20;;
68951;SDS011;56000;51.146;17.112;2022-10-03T18:35:01;18.90;;;3.60;;
68951;SDS011;56000;51.146;17.112;2022-10-03T18:38:02;17.90;;;3.70;;
68951;SDS011;56000;51.146;17.112;2022-10-03T18:40:53;11.50;;;3.10;;
68951;SDS011;56000;51.146;17.112;2022-10-03T18:43:36;14.40;;;3.90;;
68951;SDS011;56000;51.146;17.112;2022-10-03T18:46:19;11.30;;;2.90;;
68951;SDS011;56000;51.146;17.112;2022-10-03T18:49:03;12.60;;;2.60;;
68951;SDS011;56000;51.146;17.112;2022-10-03T18:52:08;20.60;;;4.00;;
68951;SDS011;56000;51.146;17.112;2022-10-03T18:54:53;13.90;;;3.30;;
68951;SDS011;56000;51.146;17.112;2022-10-03T18:57:37;11.90;;;3.30;;
68951;SDS011;56000;51.146;17.112;2022-10-03T19:00:18;9.30;;;3.10;;
68951;SDS011;56000;51.146;17.112;2022-10-03T19:02:58;12.80;;;3.40;;
68951;SDS011;56000;51.146;17.112;2022-10-03T19:05:33;9.70;;;2.60;;
68951;SDS011;56000;51.146;17.112;2022-10-03T19:08:17;13.10;;;3.20;;
68951;SDS011;56000;51.146;17.112;2022-10-03T19:10:58;7.10;;;2.90;;
68951;SDS011;56000;51.146;17.112;2022-10-03T19:13:43;14.30;;;2.90;;
68951;SDS011;56000;51.146;17.112;2022-10-03T19:16:55;11.90;;;3.00;;
68951;SDS011;56000;51.146;17.112;2022-10-03T19:19:43;12.10;;;3.00;;
68951;SDS011;56000;51.146;17.112;2022-10-03T19:22:32;10.00;;;2.80;;
68951;SDS011;56000;51.146;17.112;2022-10-03T19:25:19;17.60;;;3.10;;
68951;SDS011;56000;51.146;17.112;2022-10-03T19:27:59;12.20;;;3.10;;
68951;SDS011;56000;51.146;17.112;2022-10-03T19:30:38;10.20;;;2.70;;
68951;SDS011;56000;51.146;17.112;2022-10-03T19:33:17;11.40;;;2.90;;
68951;SDS011;56000;51.146;17.112;2022-10-03T19:35:57;11.30;;;3.20;;
68951;SDS011;56000;51.146;17.112;2022-10-03T19:38:35;11.20;;;2.80;;
68951;SDS011;56000;51.146;17.112;2022-10-03T19:41:18;11.40;;;2.80;;
68951;SDS011;56000;51.146;17.112;2022-10-03T19:44:05;9.60;;;2.60;;
68951;SDS011;56000;51.146;17.112;2022-10-03T19:46:58;14.70;;;2.80;;
68951;SDS011;56000;51.146;17.112;2022-10-03T19:49:44;12.40;;;3.00;;
68951;SDS011;56000;51.146;17.112;2022-10-03T19:52:28;11.00;;;2.90;;
68951;SDS011;56000;51.146;17.112;2022-10-03T19:55:09;10.10;;;2.70;;
68951;SDS011;56000;51.146;17.112;2022-10-03T19:57:46;9.40;;;2.40;;
68951;SDS011;56000;51.146;17.112;2022-10-03T20:00:26;9.90;;;2.40;;
68951;SDS011;56000;51.146;17.112;2022-10-03T20:03:13;11.40;;;2.40;;
68951;SDS011;56000;51.146;17.112;2022-10-03T20:05:56;12.90;;;2.60;;
68951;SDS011;56000;51.146;17.112;2022-10-03T20:08:34;6.40;;;2.40;;
68951;SDS011;56000;51.146;17.112;2022-10-03T20:11:31;16.00;;;3.10;;
68951;SDS011;56000;51.146;17.112;2022-10-03T20:14:14;8.30;;;2.70;;
68951;SDS011;56000;51.146;17.112;2022-10-03T20:16:53;11.70;;;3.20;;